Winnipeg James Armstrong Richardson International Airport
CYWG : now visible

Airfield :











YOU CAN JOIN US ON...

 
LOGIN :

Register | Disclaimer

   EN    FR    IT 

 









Legend :    VFR   Marginal VFR   IFR   Intensive IFR   Very Intensive IFR
Visi :
Ceiling :
>= 8 km
>= 3000ft
5 to 8 km
1000 to 3000 ft
1500m to 5 km
500 to 1000 ft
800 to 1500m
200 to 500 ft
< 800m
< 200 ft
Symbols :   Thunderstorms  Fog  Heavy snow  Heavy precipitations  Wind > 20 kt






- Airport Elevation : 783 ft
- IATA code : YWG


CYWG - Winnipeg James Armstrong Richardson International

CURRENT METAR :
  • 110400Z 22014G19KT 15SM SKC 19/09 A2966 RMK SLP046 DENSITY ALT 1800FT

EXPIRED METARs :
  • 110300Z 22015G21KT 15SM FEW120 FEW280 21/08 A2966 RMK AC1CI1 SLP047 DENSITY ALT 2000FT
  • 110200Z 23012G18KT 15SM FEW090 SCT280 23/07 A2967 RMK AC2CI1 SLP048 DENSITY ALT 2200FT

TAF TAF CYWG
Valid from the 11 at 00:00 until the 12 at 00:00 UTC


102338Z 1100/1124 27018G28KT P6SM FEW060
BECMG 1101/1103 25012KT SCT240
FM111500 28015KT P6SM SKC
FM112000 30015KT P6SM SCT100 RMK NXT FCST BY 110600Z
CZWG FIR / North America



MET'MAP, your aeronautical weather chart ! - Copyright ORBIFLY December 2007 - Disclaimer

ORBIFLY MET'MAP TEAM :

Programming & Development : Alexandra Zaïnal
Concept & original design : Baudouin d'Aumeries
Assistance for programming : Marc-Olivier Méhu
Technical & hardware support : Manuel Goepfert

Contact : metmap@orbifly.com




SOURCES & CREDITS :

   NOAA       Earth
Advisory